Full Circle — ZJL9089 — position and weather

sailwx.info

Track history (hours):
 
Tides and Currents Weather Stations Pressure Air Temp Water Temp Dewpoint Dewpoint Depression Visibility Wind Speed Wind Dir Waves Ship Positions

Full Circle

Last reported at 2018-Feb-23 22:56 UTC. Time now 2018-Feb-24 02:19 UTC.
Position N 26°07' W 080°08'.

Length 26 m.

Type: Pleasure craft. MMSI: 378112118.

Date/timePositionNaut miles runAvg speedWind from/ knotsBaromVisibWave heightAir tempDewpointWater temp
2018-Feb-23 22:56N 26°07' W 080°08'0 0.0
2018-Feb-23 22:23N 26°07' W 080°08'0 0.0
2018-Feb-23 21:35N 26°07' W 080°08'0 0.0
2018-Feb-23 21:23N 26°07' W 080°08'0 0.0
2018-Feb-23 20:35N 26°07' W 080°08'0 0.0
2018-Feb-23 19:20N 26°07' W 080°08'0 0.0
2018-Feb-23 18:59N 26°07' W 080°08'2 2.7
2018-Feb-23 18:08N 26°05' W 080°07'1 5.9
2018-Feb-23 18:01N 26°04' W 080°07'1 1.4
2018-Feb-23 17:26N 26°03' W 080°08'0 0.1
2018-Feb-23 16:55N 26°03' W 080°08'0 0.4
2018-Feb-23 16:30N 26°04' W 080°08'0 0.0
2018-Feb-23 16:00N 26°04' W 080°08'0 0.0
2018-Feb-23 15:30N 26°04' W 080°08'0 0.0
2018-Feb-23 14:57N 26°04' W 080°08'1 2.6
2018-Feb-23 14:28N 26°05' W 080°07'1 2.2
2018-Feb-23 13:58N 26°06' W 080°06'1 0.1
2018-Feb-23 07:36N 26°06' W 080°07'  
2018-Feb-20 18:53N 26°06' W 080°07'3 6.5
2018-Feb-20 18:28N 26°03' W 080°07'3 5.4
2018-Feb-20 18:00N 26°00' W 080°07'4 7.2
2018-Feb-20 17:30N 25°57' W 080°08'3 6.8
2018-Feb-20 17:00N 25°53' W 080°08'3 5.1
2018-Feb-20 16:30N 25°51' W 080°09'1 2.5
2018-Feb-20 15:58N 25°50' W 080°07'0 0.4
2018-Feb-20 15:29N 25°50' W 080°07'0 0.2
2018-Feb-20 13:24N 25°50' W 080°07'0 0.0
2018-Feb-20 09:48N 25°50' W 080°07'0 0.0
2018-Feb-20 08:09N 25°50' W 080°07'0 0.0
2018-Feb-20 05:27N 25°50' W 080°07'0 0.0
2018-Feb-20 04:57N 25°50' W 080°07'0 0.0
2018-Feb-20 01:21N 25°50' W 080°07'0 0.0
2018-Feb-19 20:15N 25°50' W 080°07'0 0.0
2018-Feb-19 19:27N 25°50' W 080°07'0 0.0
2018-Feb-19 18:21N 25°50' W 080°07'0 0.0
2018-Feb-19 17:51N 25°50' W 080°07'0 0.0
2018-Feb-19 16:39N 25°50' W 080°07'0 0.0
2018-Feb-19 16:24N 25°50' W 080°07'0 0.0
2018-Feb-19 15:51N 25°50' W 080°07'0 0.0
2018-Feb-19 15:21N 25°50' W 080°07'0 0.0
2018-Feb-19 14:39N 25°50' W 080°07'0 0.0
2018-Feb-19 14:27N 25°50' W 080°07'0 0.0
2018-Feb-19 13:27N 25°50' W 080°07'0 0.0
2018-Feb-19 12:51N 25°50' W 080°07'0 0.0
2018-Feb-19 12:21N 25°50' W 080°07'0 0.0
2018-Feb-19 11:27N 25°50' W 080°07'0 0.0
2018-Feb-19 10:57N 25°50' W 080°07'0 0.0
2018-Feb-19 09:57N 25°50' W 080°07'0 0.0
2018-Feb-19 08:09N 25°50' W 080°07'0 0.0
2018-Feb-19 07:21N 25°50' W 080°07'0 0.0
2018-Feb-19 06:57N 25°50' W 080°07'0 0.0
2018-Feb-19 05:51N 25°50' W 080°07'0 0.0
2018-Feb-19 05:21N 25°50' W 080°07'0 0.0
2018-Feb-19 04:33N 25°50' W 080°07'0 0.0
2018-Feb-19 04:21N 25°50' W 080°07'0 0.0
2018-Feb-19 03:54N 25°50' W 080°07'0 0.0
2018-Feb-19 03:21N 25°50' W 080°07'0 0.0
2018-Feb-19 01:21N 25°50' W 080°07'0 0.0
2018-Feb-17 16:42N 25°50' W 080°07'0 0.0
2018-Feb-17 01:18N 25°50' W 080°07'0 0.0
2018-Feb-16 10:30N 25°50' W 080°07'0 0.0
2018-Feb-16 05:39N 25°50' W 080°07'0 0.0
2018-Feb-16 02:57N 25°50' W 080°07'0 0.0
2018-Feb-16 00:45N 25°50' W 080°07'0 0.0
2018-Feb-15 23:00N 25°50' W 080°07'0 0.0
2018-Feb-15 08:39N 25°50' W 080°07'0 0.0
2018-Feb-15 00:51N 25°50' W 080°07'  
Track history (hours):
 
Tides and Currents Weather Stations Pressure Air Temp Water Temp Dewpoint Dewpoint Depression Visibility Wind Speed Wind Dir Waves Ship Positions

Full Circle

Last reported at 2018-Feb-23 22:56 UTC. Time now 2018-Feb-24 02:19 UTC.
Position N 26°07' W 080°08'.

Length 26 m.

Type: Pleasure craft. MMSI: 378112118.

Date/timePositionNaut miles runAvg speedWind from/ knotsBaromVisibWave heightAir tempDewpointWater temp
2018-Feb-23 22:56N 26°07' W 080°08'0 0.0
2018-Feb-23 22:23N 26°07' W 080°08'0 0.0
2018-Feb-23 21:35N 26°07' W 080°08'0 0.0
2018-Feb-23 21:23N 26°07' W 080°08'0 0.0
2018-Feb-23 20:35N 26°07' W 080°08'0 0.0
2018-Feb-23 19:20N 26°07' W 080°08'0 0.0
2018-Feb-23 18:59N 26°07' W 080°08'2 2.7
2018-Feb-23 18:08N 26°05' W 080°07'1 5.9
2018-Feb-23 18:01N 26°04' W 080°07'1 1.4
2018-Feb-23 17:26N 26°03' W 080°08'0 0.1
2018-Feb-23 16:55N 26°03' W 080°08'0 0.4
2018-Feb-23 16:30N 26°04' W 080°08'0 0.0
2018-Feb-23 16:00N 26°04' W 080°08'0 0.0
2018-Feb-23 15:30N 26°04' W 080°08'0 0.0
2018-Feb-23 14:57N 26°04' W 080°08'1 2.6
2018-Feb-23 14:28N 26°05' W 080°07'1 2.2
2018-Feb-23 13:58N 26°06' W 080°06'1 0.1
2018-Feb-23 07:36N 26°06' W 080°07'  
2018-Feb-20 18:53N 26°06' W 080°07'3 6.5
2018-Feb-20 18:28N 26°03' W 080°07'3 5.4
2018-Feb-20 18:00N 26°00' W 080°07'4 7.2
2018-Feb-20 17:30N 25°57' W 080°08'3 6.8
2018-Feb-20 17:00N 25°53' W 080°08'3 5.1
2018-Feb-20 16:30N 25°51' W 080°09'1 2.5
2018-Feb-20 15:58N 25°50' W 080°07'0 0.4
2018-Feb-20 15:29N 25°50' W 080°07'0 0.2
2018-Feb-20 13:24N 25°50' W 080°07'0 0.0
2018-Feb-20 09:48N 25°50' W 080°07'0 0.0
2018-Feb-20 08:09N 25°50' W 080°07'0 0.0
2018-Feb-20 05:27N 25°50' W 080°07'0 0.0
2018-Feb-20 04:57N 25°50' W 080°07'0 0.0
2018-Feb-20 01:21N 25°50' W 080°07'0 0.0
2018-Feb-19 20:15N 25°50' W 080°07'0 0.0
2018-Feb-19 19:27N 25°50' W 080°07'0 0.0
2018-Feb-19 18:21N 25°50' W 080°07'0 0.0
2018-Feb-19 17:51N 25°50' W 080°07'0 0.0
2018-Feb-19 16:39N 25°50' W 080°07'0 0.0
2018-Feb-19 16:24N 25°50' W 080°07'0 0.0
2018-Feb-19 15:51N 25°50' W 080°07'0 0.0
2018-Feb-19 15:21N 25°50' W 080°07'0 0.0
2018-Feb-19 14:39N 25°50' W 080°07'0 0.0
2018-Feb-19 14:27N 25°50' W 080°07'0 0.0
2018-Feb-19 13:27N 25°50' W 080°07'0 0.0
2018-Feb-19 12:51N 25°50' W 080°07'0 0.0
2018-Feb-19 12:21N 25°50' W 080°07'0 0.0
2018-Feb-19 11:27N 25°50' W 080°07'0 0.0
2018-Feb-19 10:57N 25°50' W 080°07'0 0.0
2018-Feb-19 09:57N 25°50' W 080°07'0 0.0
2018-Feb-19 08:09N 25°50' W 080°07'0 0.0
2018-Feb-19 07:21N 25°50' W 080°07'0 0.0
2018-Feb-19 06:57N 25°50' W 080°07'0 0.0
2018-Feb-19 05:51N 25°50' W 080°07'0 0.0
2018-Feb-19 05:21N 25°50' W 080°07'0 0.0
2018-Feb-19 04:33N 25°50' W 080°07'0 0.0
2018-Feb-19 04:21N 25°50' W 080°07'0 0.0
2018-Feb-19 03:54N 25°50' W 080°07'0 0.0
2018-Feb-19 03:21N 25°50' W 080°07'0 0.0
2018-Feb-19 01:21N 25°50' W 080°07'0 0.0
2018-Feb-17 16:42N 25°50' W 080°07'0 0.0
2018-Feb-17 01:18N 25°50' W 080°07'0 0.0
2018-Feb-16 10:30N 25°50' W 080°07'0 0.0
2018-Feb-16 05:39N 25°50' W 080°07'0 0.0
2018-Feb-16 02:57N 25°50' W 080°07'0 0.0
2018-Feb-16 00:45N 25°50' W 080°07'0 0.0
2018-Feb-15 23:00N 25°50' W 080°07'0 0.0
2018-Feb-15 08:39N 25°50' W 080°07'0 0.0
2018-Feb-15 00:51N 25°50' W 080°07'  

Dump ship's entire track history